createdAt,value
2022-08-29T00:00:33.626Z,8.50
2022-08-29T00:03:08.368Z,12.38
2022-08-29T00:05:40.078Z,8.60
2022-08-29T00:08:11.815Z,8.32
2022-08-29T00:10:41.724Z,8.30
2022-08-29T00:13:13.484Z,9.05
2022-08-29T00:15:44.977Z,8.63
2022-08-29T00:18:15.236Z,9.63
2022-08-29T00:20:44.388Z,9.00
2022-08-29T00:23:14.027Z,10.05
2022-08-29T00:25:43.339Z,9.60
2022-08-29T00:28:13.347Z,9.05
2022-08-29T00:30:43.157Z,10.70
2022-08-29T00:33:12.177Z,13.27
2022-08-29T00:35:43.213Z,8.88
2022-08-29T00:38:14.957Z,10.05
2022-08-29T00:40:51.731Z,9.65
2022-08-29T00:43:25.798Z,10.15
2022-08-29T00:46:04.005Z,8.70
2022-08-29T00:48:36.473Z,10.05
2022-08-29T00:51:09.289Z,9.15
2022-08-29T00:53:42.259Z,9.27
2022-08-29T00:56:14.181Z,8.82
2022-08-29T00:58:47.759Z,9.63
2022-08-29T01:01:17.165Z,9.68
2022-08-29T01:03:48.634Z,9.70
2022-08-29T01:06:17.337Z,9.13
2022-08-29T01:08:46.305Z,9.13
2022-08-29T01:11:36.238Z,8.50
2022-08-29T01:14:06.630Z,9.10
2022-08-29T01:16:37.145Z,10.23
2022-08-29T01:19:13.182Z,10.63
2022-08-29T01:21:48.619Z,8.40
2022-08-29T01:24:37.134Z,11.15
2022-08-29T01:27:05.468Z,9.38
2022-08-29T01:29:34.850Z,9.38
2022-08-29T01:32:03.344Z,9.43
2022-08-29T01:34:32.514Z,9.32
2022-08-29T01:37:03.013Z,8.77
2022-08-29T01:39:35.938Z,9.50
2022-08-29T01:42:07.745Z,10.13
2022-08-29T01:44:37.485Z,8.82
2022-08-29T01:47:07.190Z,10.50
2022-08-29T01:49:40.760Z,9.05
2022-08-29T01:52:10.301Z,8.88
2022-08-29T01:54:41.746Z,9.65
2022-08-29T01:57:13.079Z,10.00
2022-08-29T01:59:43.310Z,10.00
2022-08-29T02:02:17.318Z,9.13
2022-08-29T02:04:48.882Z,9.23
2022-08-29T02:07:19.504Z,9.27
2022-08-29T02:09:49.800Z,9.40
2022-08-29T02:12:20.843Z,12.90
2022-08-29T02:14:49.423Z,9.70
2022-08-29T02:17:18.971Z,13.55
2022-08-29T02:19:47.548Z,10.07
2022-08-29T02:22:17.801Z,10.40
2022-08-29T02:24:46.289Z,8.57
2022-08-29T02:27:16.838Z,9.48
2022-08-29T02:29:45.281Z,9.65
2022-08-29T02:32:15.914Z,11.85
2022-08-29T02:34:47.528Z,9.80
2022-08-29T02:37:17.991Z,11.32
2022-08-29T02:39:46.650Z,10.55
2022-08-29T02:42:16.853Z,12.88
2022-08-29T02:44:45.622Z,10.18
2022-08-29T02:47:14.386Z,16.92
2022-08-29T02:49:43.765Z,19.92
2022-08-29T02:52:13.363Z,19.30
2022-08-29T02:54:41.702Z,17.83
2022-08-29T02:57:10.955Z,16.63
2022-08-29T02:59:40.630Z,20.98
2022-08-29T03:02:10.054Z,17.80
2022-08-29T03:04:38.657Z,19.75
2022-08-29T03:07:06.975Z,20.30
2022-08-29T03:09:36.318Z,25.00
2022-08-29T03:12:05.173Z,30.10
2022-08-29T03:14:34.466Z,24.52
2022-08-29T03:17:04.254Z,26.42
2022-08-29T03:19:37.388Z,27.52
2022-08-29T03:22:06.455Z,26.35
2022-08-29T03:24:36.025Z,32.40
2022-08-29T03:27:05.389Z,38.80
2022-08-29T03:29:34.192Z,30.83
2022-08-29T03:32:05.311Z,41.42
2022-08-29T03:34:34.214Z,63.97
2022-08-29T03:37:02.539Z,76.50
2022-08-29T03:39:32.186Z,54.65
2022-08-29T03:42:00.565Z,89.72
2022-08-29T03:44:29.580Z,52.60
2022-08-29T03:46:58.031Z,29.40
2022-08-29T03:49:28.833Z,36.35
2022-08-29T03:51:57.639Z,27.70
2022-08-29T03:54:26.054Z,38.95
2022-08-29T03:56:54.853Z,33.17
2022-08-29T03:59:24.229Z,36.08
2022-08-29T04:01:53.353Z,37.45
2022-08-29T04:04:39.826Z,37.00
2022-08-29T04:07:13.161Z,35.22
2022-08-29T04:09:43.154Z,43.42
2022-08-29T04:12:13.175Z,54.83
2022-08-29T04:14:43.139Z,45.33
2022-08-29T04:17:12.316Z,32.97
2022-08-29T04:19:41.410Z,41.92
2022-08-29T04:22:11.113Z,27.65
2022-08-29T04:24:40.141Z,33.53
2022-08-29T04:27:08.459Z,41.65
2022-08-29T04:29:38.626Z,33.05
2022-08-29T04:32:07.442Z,27.48
2022-08-29T04:34:36.113Z,27.88
2022-08-29T04:37:04.806Z,28.85
2022-08-29T04:39:35.729Z,27.95
2022-08-29T04:42:04.349Z,33.17
2022-08-29T04:44:34.449Z,28.27
2022-08-29T04:47:02.742Z,33.38
2022-08-29T04:49:31.827Z,24.38
2022-08-29T04:52:00.173Z,24.17
2022-08-29T04:54:29.527Z,23.35
2022-08-29T04:57:05.006Z,47.42
2022-08-29T04:59:34.037Z,35.95
2022-08-29T05:02:02.543Z,27.15
2022-08-29T05:04:31.829Z,25.73
2022-08-29T05:07:00.290Z,25.35
2022-08-29T05:09:29.572Z,24.85
2022-08-29T05:11:59.491Z,22.25
2022-08-29T05:14:28.380Z,25.10
2022-08-29T05:16:57.102Z,33.15
2022-08-29T05:19:25.390Z,34.30
2022-08-29T05:21:58.308Z,24.05
2022-08-29T05:24:26.615Z,26.40
2022-08-29T05:26:55.639Z,45.85
2022-08-29T05:29:25.503Z,25.60
2022-08-29T05:31:53.826Z,31.08
2022-08-29T05:34:34.034Z,34.13
2022-08-29T05:37:05.247Z,83.40
2022-08-29T05:39:34.561Z,62.88
2022-08-29T05:42:03.309Z,52.90
2022-08-29T05:44:35.378Z,78.05
2022-08-29T05:47:05.368Z,78.03
2022-08-29T05:49:37.172Z,21.40
2022-08-29T05:52:06.637Z,36.78
2022-08-29T05:54:37.918Z,49.38
2022-08-29T05:57:06.861Z,110.35
2022-08-29T05:59:36.977Z,45.03
2022-08-29T06:02:08.459Z,38.25
2022-08-29T06:04:36.894Z,62.78
2022-08-29T06:07:06.978Z,27.73
2022-08-29T06:09:36.435Z,26.55
2022-08-29T06:12:06.182Z,120.20
2022-08-29T06:14:36.215Z,36.63
2022-08-29T06:17:08.080Z,54.15
2022-08-29T06:19:39.473Z,62.63
2022-08-29T06:22:10.284Z,168.18
2022-08-29T06:24:44.383Z,65.13
2022-08-29T06:27:14.710Z,28.50
2022-08-29T06:29:44.447Z,59.00
2022-08-29T06:32:13.431Z,91.88
2022-08-29T06:34:42.173Z,21.85
2022-08-29T06:37:10.778Z,29.40
2022-08-29T06:39:39.806Z,33.35
2022-08-29T06:42:08.456Z,30.40
2022-08-29T06:44:40.188Z,91.30
2022-08-29T06:47:12.734Z,80.07
2022-08-29T06:49:41.329Z,33.55
2022-08-29T06:52:10.023Z,33.17
2022-08-29T06:54:38.854Z,37.92
2022-08-29T06:57:07.303Z,33.47
2022-08-29T06:59:36.884Z,29.60
2022-08-29T07:02:05.457Z,34.95
2022-08-29T07:04:35.625Z,19.80
2022-08-29T07:07:05.249Z,21.67
2022-08-29T07:09:34.383Z,20.83
2022-08-29T07:12:03.114Z,23.38
2022-08-29T07:14:32.001Z,28.60
2022-08-29T07:17:00.707Z,24.55
2022-08-29T07:19:29.824Z,22.38
2022-08-29T07:22:00.527Z,19.85
2022-08-29T07:24:29.555Z,23.00
2022-08-29T07:26:57.923Z,23.25
2022-08-29T07:29:27.067Z,29.13
2022-08-29T07:31:55.896Z,26.38
2022-08-29T07:34:24.292Z,26.95
2022-08-29T07:36:53.492Z,24.27
2022-08-29T07:39:24.562Z,29.35
2022-08-29T07:41:53.009Z,26.77
2022-08-29T07:44:21.809Z,25.90
2022-08-29T07:46:50.641Z,29.00
2022-08-29T07:49:19.289Z,29.10
2022-08-29T07:51:48.312Z,24.67
2022-08-29T07:54:18.814Z,31.55
2022-08-29T07:56:49.831Z,20.85
2022-08-29T07:59:20.182Z,21.58
2022-08-29T08:01:49.714Z,21.83
2022-08-29T08:04:18.252Z,23.23
2022-08-29T08:06:48.110Z,33.75
2022-08-29T08:09:16.512Z,25.35
2022-08-29T08:11:44.867Z,23.40
2022-08-29T08:14:15.143Z,24.33
2022-08-29T08:16:44.845Z,27.25
2022-08-29T08:19:14.127Z,25.05
2022-08-29T08:21:49.547Z,33.67
2022-08-29T08:24:19.989Z,29.77
2022-08-29T08:26:50.250Z,25.83
2022-08-29T08:29:19.954Z,32.30
2022-08-29T08:31:51.984Z,20.52
2022-08-29T08:34:20.722Z,22.85
2022-08-29T08:36:50.443Z,22.63
2022-08-29T08:39:20.936Z,24.52
2022-08-29T08:41:57.601Z,26.15
2022-08-29T08:44:51.467Z,24.95
2022-08-29T08:47:27.170Z,24.48
2022-08-29T08:50:01.066Z,28.42
2022-08-29T08:52:38.252Z,26.60
2022-08-29T08:55:15.463Z,28.67
2022-08-29T08:57:51.106Z,30.58
2022-08-29T09:00:21.611Z,31.60
2022-08-29T09:03:03.788Z,35.10
2022-08-29T09:05:48.589Z,34.78
2022-08-29T09:08:30.259Z,30.65
2022-08-29T09:11:04.562Z,30.95
2022-08-29T09:13:46.699Z,31.00
2022-08-29T09:16:25.459Z,27.65
2022-08-29T09:18:57.245Z,29.80
2022-08-29T09:21:43.698Z,28.83
2022-08-29T09:24:21.730Z,30.08
2022-08-29T09:26:51.022Z,27.63
2022-08-29T09:29:21.134Z,26.65
2022-08-29T09:32:07.284Z,25.02
2022-08-29T09:35:04.438Z,24.40
2022-08-29T09:37:30.371Z,25.15
2022-08-29T09:40:02.831Z,27.23
2022-08-29T09:42:35.776Z,26.13
2022-08-29T09:45:16.171Z,26.20
2022-08-29T09:47:46.447Z,21.95
2022-08-29T09:50:24.906Z,22.58
2022-08-29T09:52:55.411Z,22.45
2022-08-29T09:55:29.263Z,22.83
2022-08-29T09:58:02.698Z,20.42
2022-08-29T10:00:35.162Z,20.42
2022-08-29T10:03:07.321Z,22.75
2022-08-29T10:05:41.726Z,22.48
2022-08-29T10:08:27.510Z,21.80
2022-08-29T10:10:58.230Z,21.65
2022-08-29T10:13:34.898Z,18.30
2022-08-29T10:16:13.821Z,22.65
2022-08-29T10:18:49.773Z,22.10
2022-08-29T10:21:30.130Z,19.90
2022-08-29T10:24:14.697Z,18.33
2022-08-29T10:26:53.373Z,18.40
2022-08-29T10:29:33.257Z,19.00
2022-08-29T10:32:17.091Z,17.20
2022-08-29T10:35:03.182Z,23.30
2022-08-29T10:37:44.867Z,17.13
2022-08-29T10:40:19.897Z,15.82
2022-08-29T10:42:53.491Z,21.27
2022-08-29T10:45:30.673Z,18.00
2022-08-29T10:48:05.939Z,15.48
2022-08-29T10:50:44.414Z,14.93
2022-08-29T10:53:20.244Z,16.25
2022-08-29T10:55:55.174Z,16.33
2022-08-29T10:58:37.263Z,15.55
2022-08-29T11:01:13.954Z,14.32
2022-08-29T11:03:49.099Z,14.60
2022-08-29T11:06:22.681Z,13.05
2022-08-29T11:08:58.679Z,15.13
2022-08-29T11:11:29.957Z,15.25
2022-08-29T11:14:05.979Z,13.70
2022-08-29T11:16:41.044Z,17.45
2022-08-29T11:19:17.864Z,11.98
2022-08-29T11:21:55.531Z,14.48
2022-08-29T11:24:34.377Z,12.82
2022-08-29T11:27:11.038Z,12.55
2022-08-29T11:29:47.190Z,11.50
2022-08-29T11:32:24.696Z,10.52
2022-08-29T11:35:08.287Z,12.02
2022-08-29T11:38:05.330Z,11.60
2022-08-29T11:41:26.364Z,10.90
2022-08-29T11:43:42.672Z,10.80
2022-08-29T11:46:14.302Z,10.60
2022-08-29T11:48:44.758Z,10.23
2022-08-29T11:51:31.412Z,9.80
2022-08-29T11:54:48.713Z,10.40
2022-08-29T11:57:53.782Z,9.80
2022-08-29T12:00:38.049Z,11.07
2022-08-29T12:03:47.468Z,11.52
2022-08-29T12:06:22.703Z,8.32
2022-08-29T12:09:01.733Z,9.52
2022-08-29T12:12:10.775Z,7.05
2022-08-29T12:14:42.328Z,8.10
2022-08-29T12:17:58.102Z,7.13
2022-08-29T12:20:40.504Z,7.90
2022-08-29T12:23:21.177Z,7.55
2022-08-29T12:26:09.411Z,8.88
2022-08-29T12:28:47.947Z,6.97
2022-08-29T12:31:31.254Z,9.40
2022-08-29T12:34:23.447Z,7.68
2022-08-29T12:37:28.012Z,9.18
2022-08-29T12:40:28.114Z,6.47
2022-08-29T12:43:12.794Z,5.78
2022-08-29T12:45:44.400Z,8.00
2022-08-29T12:48:21.083Z,6.63
2022-08-29T12:50:50.398Z,7.32
2022-08-29T12:53:20.554Z,7.30
2022-08-29T12:55:51.893Z,5.38
2022-08-29T12:58:38.142Z,5.90
2022-08-29T13:01:10.891Z,6.03
2022-08-29T13:03:41.403Z,5.68
2022-08-29T13:06:14.520Z,7.28
2022-08-29T13:08:43.809Z,5.43
2022-08-29T13:11:13.702Z,4.82
2022-08-29T13:13:42.487Z,5.65
2022-08-29T13:16:24.847Z,7.07
2022-08-29T13:19:10.175Z,5.57
2022-08-29T13:21:39.501Z,6.55
2022-08-29T13:24:13.919Z,5.05
2022-08-29T13:27:05.610Z,5.22
2022-08-29T13:29:38.750Z,4.63
2022-08-29T13:32:23.988Z,4.78
2022-08-29T13:35:09.007Z,5.75
2022-08-29T13:37:40.744Z,6.53
2022-08-29T13:40:32.821Z,4.32
2022-08-29T13:43:02.639Z,6.20
2022-08-29T13:45:31.453Z,3.78
2022-08-29T13:48:12.696Z,4.63
2022-08-29T13:50:42.637Z,5.97
2022-08-29T13:53:11.736Z,4.97
2022-08-29T13:55:42.928Z,7.22
2022-08-29T13:58:14.997Z,4.22
2022-08-29T14:00:44.317Z,4.05
2022-08-29T14:03:16.817Z,3.83
2022-08-29T14:05:48.545Z,3.03
2022-08-29T14:08:17.789Z,4.45
2022-08-29T14:10:47.026Z,5.35
2022-08-29T14:13:15.441Z,4.53
2022-08-29T14:15:44.817Z,4.65
2022-08-29T14:18:13.709Z,4.13
2022-08-29T14:20:42.105Z,4.53
2022-08-29T14:23:12.535Z,4.05
2022-08-29T14:25:40.908Z,6.35
2022-08-29T14:28:09.667Z,4.70
2022-08-29T14:30:42.823Z,3.35
2022-08-29T14:33:23.785Z,6.30
2022-08-29T14:35:53.087Z,5.30
2022-08-29T14:38:22.874Z,3.92
2022-08-29T14:40:52.302Z,3.85
2022-08-29T14:43:20.851Z,5.47
2022-08-29T14:45:50.184Z,5.43
2022-08-29T14:48:18.735Z,4.95
2022-08-29T14:50:47.887Z,4.90
2022-08-29T14:53:16.719Z,4.20
2022-08-29T14:55:46.440Z,3.38
2022-08-29T14:58:15.794Z,4.22
2022-08-29T15:00:44.366Z,3.42
2022-08-29T15:03:14.480Z,7.45
2022-08-29T15:05:43.692Z,6.28
2022-08-29T15:08:16.102Z,5.35
2022-08-29T15:10:45.885Z,3.47
2022-08-29T15:13:15.432Z,4.15
2022-08-29T15:15:44.317Z,4.38
2022-08-29T15:18:26.018Z,4.80
2022-08-29T15:21:04.745Z,5.43
2022-08-29T15:23:34.185Z,3.50
2022-08-29T15:26:04.334Z,4.13
2022-08-29T15:28:32.708Z,4.88
2022-08-29T15:31:01.919Z,3.47
2022-08-29T15:33:30.343Z,5.00
2022-08-29T15:35:59.594Z,4.47
2022-08-29T15:38:27.935Z,3.33
2022-08-29T15:40:57.163Z,3.40
2022-08-29T15:43:28.256Z,5.60
2022-08-29T15:45:59.895Z,4.72
2022-08-29T15:48:28.690Z,3.58
2022-08-29T15:50:57.090Z,4.35
2022-08-29T15:53:26.530Z,4.65
2022-08-29T15:55:54.876Z,6.68
2022-08-29T15:58:23.631Z,4.30
2022-08-29T16:00:53.678Z,4.97
2022-08-29T16:03:22.085Z,5.43
2022-08-29T16:05:51.334Z,5.90
2022-08-29T16:08:20.159Z,5.13
2022-08-29T16:10:50.777Z,4.15
2022-08-29T16:13:19.898Z,3.88
2022-08-29T16:15:49.093Z,4.43
2022-08-29T16:18:19.612Z,7.68
2022-08-29T16:20:48.466Z,6.85
2022-08-29T16:23:19.016Z,4.00
2022-08-29T16:25:49.322Z,5.50
2022-08-29T16:28:19.147Z,4.15
2022-08-29T16:30:50.070Z,4.72
2022-08-29T16:33:19.818Z,4.20
2022-08-29T16:35:48.761Z,4.18
2022-08-29T16:38:17.839Z,5.30
2022-08-29T16:40:46.790Z,4.72
2022-08-29T16:43:15.418Z,5.90
2022-08-29T16:45:44.578Z,5.65
2022-08-29T16:48:15.454Z,4.65
2022-08-29T16:50:47.788Z,4.95
2022-08-29T16:53:16.198Z,4.20
2022-08-29T16:55:45.383Z,3.53
2022-08-29T16:58:31.474Z,4.95
2022-08-29T17:01:00.858Z,3.85
2022-08-29T17:03:29.356Z,6.10
2022-08-29T17:05:59.963Z,3.55
2022-08-29T17:08:27.274Z,3.88
2022-08-29T17:10:55.741Z,5.18
2022-08-29T17:13:23.105Z,5.22
2022-08-29T17:15:50.875Z,4.72
2022-08-29T17:18:20.720Z,5.40
2022-08-29T17:20:49.387Z,5.25
2022-08-29T17:23:19.556Z,5.30
2022-08-29T17:25:47.999Z,4.07
2022-08-29T17:28:18.684Z,3.92
2022-08-29T17:30:56.053Z,6.82
2022-08-29T17:33:24.483Z,3.97
2022-08-29T17:35:54.047Z,4.30
2022-08-29T17:38:24.318Z,4.97
2022-08-29T17:40:57.410Z,3.80
2022-08-29T17:43:27.390Z,3.78
2022-08-29T17:45:57.719Z,7.00
2022-08-29T17:48:26.146Z,4.10
2022-08-29T17:50:54.550Z,6.38
2022-08-29T17:53:25.038Z,4.25
2022-08-29T17:55:53.892Z,4.45
2022-08-29T17:58:23.302Z,5.65
2022-08-29T18:00:52.378Z,6.25
2022-08-29T18:03:21.725Z,9.65
2022-08-29T18:05:50.131Z,5.00
2022-08-29T18:08:18.525Z,5.57
2022-08-29T18:10:48.247Z,5.15
2022-08-29T18:13:20.993Z,6.70
2022-08-29T18:15:52.690Z,8.00
2022-08-29T18:18:21.343Z,6.25
2022-08-29T18:20:50.808Z,6.85
2022-08-29T18:23:19.311Z,4.68
2022-08-29T18:25:49.497Z,4.45
2022-08-29T18:28:17.999Z,4.50
2022-08-29T18:30:46.902Z,5.97
2022-08-29T18:33:15.346Z,6.72
2022-08-29T18:35:44.151Z,7.25
2022-08-29T18:38:13.214Z,4.70
2022-08-29T18:40:41.862Z,6.47
2022-08-29T18:43:12.163Z,4.43
2022-08-29T18:45:43.340Z,6.07
2022-08-29T18:48:11.884Z,5.05
2022-08-29T18:50:41.137Z,6.03
2022-08-29T18:53:12.635Z,4.93
2022-08-29T18:55:47.257Z,4.65
2022-08-29T18:58:22.375Z,5.15
2022-08-29T19:00:51.192Z,6.25
2022-08-29T19:03:21.097Z,7.22
2022-08-29T19:05:52.267Z,6.25
2022-08-29T19:08:23.565Z,6.85
2022-08-29T19:10:53.941Z,5.57
2022-08-29T19:13:25.590Z,5.22
2022-08-29T19:15:56.938Z,6.60
2022-08-29T19:18:25.999Z,5.50
2022-08-29T19:21:02.733Z,5.10
2022-08-29T19:23:33.266Z,5.85
2022-08-29T19:26:04.078Z,6.80
2022-08-29T19:28:34.283Z,6.00
2022-08-29T19:31:04.508Z,5.53
2022-08-29T19:33:34.154Z,4.90
2022-08-29T19:36:03.872Z,5.05
2022-08-29T19:38:32.839Z,6.03
2022-08-29T19:41:01.627Z,5.35
2022-08-29T19:43:33.430Z,5.18
2022-08-29T19:46:09.717Z,7.25
2022-08-29T19:48:39.268Z,7.32
2022-08-29T19:51:10.475Z,6.45
2022-08-29T19:53:42.808Z,6.50
2022-08-29T19:56:13.679Z,5.80
2022-08-29T19:58:42.633Z,8.20
2022-08-29T20:01:12.817Z,5.97
2022-08-29T20:03:42.625Z,5.88
2022-08-29T20:06:12.244Z,5.85
2022-08-29T20:08:42.996Z,7.75
2022-08-29T20:11:12.624Z,7.68
2022-08-29T20:13:42.244Z,9.20
2022-08-29T20:16:16.873Z,6.53
2022-08-29T20:18:47.394Z,7.32
2022-08-29T20:21:19.222Z,5.38
2022-08-29T20:23:49.448Z,7.55
2022-08-29T20:26:19.285Z,6.97
2022-08-29T20:28:49.432Z,5.75
2022-08-29T20:31:20.318Z,6.95
2022-08-29T20:33:49.569Z,7.53
2022-08-29T20:36:38.980Z,8.10
2022-08-29T20:39:08.738Z,7.97
2022-08-29T20:41:37.845Z,8.05
2022-08-29T20:44:09.970Z,9.15
2022-08-29T20:46:41.253Z,7.38
2022-08-29T20:49:13.862Z,8.90
2022-08-29T20:51:44.859Z,8.27
2022-08-29T20:54:14.185Z,8.82
2022-08-29T20:56:42.970Z,6.25
2022-08-29T20:59:11.533Z,6.88
2022-08-29T21:01:41.690Z,8.70
2022-08-29T21:04:29.571Z,7.82
2022-08-29T21:07:00.552Z,6.85
2022-08-29T21:09:29.463Z,7.75
2022-08-29T21:11:58.842Z,6.40
2022-08-29T21:14:28.448Z,9.05
2022-08-29T21:16:58.662Z,7.60
2022-08-29T21:19:30.608Z,5.95
2022-08-29T21:22:01.032Z,7.63
2022-08-29T21:24:31.374Z,7.80
2022-08-29T21:27:00.135Z,6.40
2022-08-29T21:29:28.750Z,6.40
2022-08-29T21:31:59.202Z,7.70
2022-08-29T21:34:27.630Z,9.00
2022-08-29T21:36:56.777Z,6.05
2022-08-29T21:39:28.563Z,8.82
2022-08-29T21:42:02.698Z,9.50
2022-08-29T21:44:31.959Z,9.32
2022-08-29T21:47:03.477Z,7.03
2022-08-29T21:49:31.863Z,6.05
2022-08-29T21:52:01.036Z,6.35
2022-08-29T21:54:30.187Z,6.75
2022-08-29T21:56:58.511Z,7.55
2022-08-29T21:59:28.638Z,8.40
2022-08-29T22:01:57.557Z,7.57
2022-08-29T22:04:28.901Z,8.68
2022-08-29T22:06:59.681Z,7.03
2022-08-29T22:09:29.731Z,7.30
2022-08-29T22:11:59.611Z,8.20
2022-08-29T22:14:42.986Z,8.43
2022-08-29T22:17:12.161Z,6.88
2022-08-29T22:19:41.978Z,8.93
2022-08-29T22:22:11.289Z,8.32
2022-08-29T22:24:39.717Z,7.80
2022-08-29T22:27:09.112Z,7.60
2022-08-29T22:29:38.003Z,9.45
2022-08-29T22:32:07.534Z,11.02
2022-08-29T22:34:35.942Z,7.38
2022-08-29T22:37:05.651Z,7.13
2022-08-29T22:39:34.840Z,8.48
2022-08-29T22:42:03.243Z,6.55
2022-08-29T22:44:59.829Z,7.00
2022-08-29T22:47:21.503Z,7.70
2022-08-29T22:49:49.818Z,6.90
2022-08-29T22:52:20.927Z,8.32
2022-08-29T22:54:49.747Z,7.18
2022-08-29T22:57:20.387Z,6.85
2022-08-29T22:59:49.540Z,8.32
2022-08-29T23:02:20.002Z,8.65
2022-08-29T23:04:50.324Z,6.72
2022-08-29T23:07:20.707Z,8.15
2022-08-29T23:09:51.039Z,7.30
2022-08-29T23:12:19.939Z,9.95
2022-08-29T23:14:48.832Z,7.30
2022-08-29T23:17:18.146Z,8.70
2022-08-29T23:19:47.117Z,6.90
2022-08-29T23:22:20.522Z,6.95
2022-08-29T23:24:53.797Z,8.65
2022-08-29T23:27:29.106Z,8.10
2022-08-29T23:29:58.420Z,7.68
2022-08-29T23:32:28.811Z,7.90
2022-08-29T23:34:57.734Z,8.85
2022-08-29T23:37:27.852Z,10.00
2022-08-29T23:39:56.681Z,6.60
2022-08-29T23:42:25.792Z,8.25
2022-08-29T23:44:54.979Z,6.75
2022-08-29T23:47:23.643Z,7.90
2022-08-29T23:49:53.034Z,10.23
2022-08-29T23:52:21.357Z,7.50
2022-08-29T23:54:51.663Z,7.60
2022-08-29T23:57:19.951Z,8.50
